sensor_id;sensor_type;location;lat;lon;timestamp;P1;durP1;ratioP1;P2;durP2;ratioP2
3571;SDS011;7958;53.024;12.970;2023-12-20T00:00:19;1.00;;;1.00;;
3571;SDS011;7958;53.024;12.970;2023-12-20T00:02:45;1.30;;;1.20;;
3571;SDS011;7958;53.024;12.970;2023-12-20T00:05:12;2.17;;;1.20;;
3571;SDS011;7958;53.024;12.970;2023-12-20T00:07:38;1.20;;;1.10;;
3571;SDS011;7958;53.024;12.970;2023-12-20T00:10:07;0.87;;;0.87;;
3571;SDS011;7958;53.024;12.970;2023-12-20T00:12:34;0.90;;;0.90;;
3571;SDS011;7958;53.024;12.970;2023-12-20T00:15:00;1.33;;;1.23;;
3571;SDS011;7958;53.024;12.970;2023-12-20T00:17:26;7.47;;;0.97;;
3571;SDS011;7958;53.024;12.970;2023-12-20T00:19:53;1.00;;;0.90;;
3571;SDS011;7958;53.024;12.970;2023-12-20T00:22:19;1.23;;;0.80;;
3571;SDS011;7958;53.024;12.970;2023-12-20T00:24:45;1.47;;;0.63;;
3571;SDS011;7958;53.024;12.970;2023-12-20T00:27:13;1.33;;;0.90;;
3571;SDS011;7958;53.024;12.970;2023-12-20T00:29:39;2.20;;;0.90;;
3571;SDS011;7958;53.024;12.970;2023-12-20T00:32:07;1.70;;;0.70;;
3571;SDS011;7958;53.024;12.970;2023-12-20T00:34:34;1.77;;;0.83;;
3571;SDS011;7958;53.024;12.970;2023-12-20T00:37:00;1.70;;;0.93;;
3571;SDS011;7958;53.024;12.970;2023-12-20T00:39:28;0.70;;;0.70;;
3571;SDS011;7958;53.024;12.970;2023-12-20T00:41:55;1.77;;;0.90;;
3571;SDS011;7958;53.024;12.970;2023-12-20T00:44:23;1.80;;;0.70;;
3571;SDS011;7958;53.024;12.970;2023-12-20T00:46:49;0.97;;;0.90;;
3571;SDS011;7958;53.024;12.970;2023-12-20T00:49:16;1.40;;;0.90;;
3571;SDS011;7958;53.024;12.970;2023-12-20T00:51:42;1.50;;;1.00;;
3571;SDS011;7958;53.024;12.970;2023-12-20T00:54:09;5.43;;;1.27;;
3571;SDS011;7958;53.024;12.970;2023-12-20T00:56:35;1.83;;;1.00;;
3571;SDS011;7958;53.024;12.970;2023-12-20T00:59:02;2.57;;;1.00;;
3571;SDS011;7958;53.024;12.970;2023-12-20T01:01:29;0.93;;;0.70;;
3571;SDS011;7958;53.024;12.970;2023-12-20T01:03:58;3.70;;;0.80;;
3571;SDS011;7958;53.024;12.970;2023-12-20T01:06:24;0.80;;;0.80;;
3571;SDS011;7958;53.024;12.970;2023-12-20T01:08:51;1.83;;;1.10;;
3571;SDS011;7958;53.024;12.970;2023-12-20T01:11:17;2.20;;;1.10;;
3571;SDS011;7958;53.024;12.970;2023-12-20T01:13:45;1.33;;;0.80;;
3571;SDS011;7958;53.024;12.970;2023-12-20T01:16:12;1.83;;;1.03;;
3571;SDS011;7958;53.024;12.970;2023-12-20T01:18:40;2.20;;;1.20;;
3571;SDS011;7958;53.024;12.970;2023-12-20T01:21:06;1.10;;;1.00;;
3571;SDS011;7958;53.024;12.970;2023-12-20T01:23:32;2.73;;;1.23;;
3571;SDS011;7958;53.024;12.970;2023-12-20T01:25:59;3.13;;;1.13;;
3571;SDS011;7958;53.024;12.970;2023-12-20T01:28:25;1.27;;;1.07;;
3571;SDS011;7958;53.024;12.970;2023-12-20T01:30:52;2.03;;;1.33;;
3571;SDS011;7958;53.024;12.970;2023-12-20T01:33:18;1.10;;;1.10;;
3571;SDS011;7958;53.024;12.970;2023-12-20T01:35:46;4.13;;;1.13;;
3571;SDS011;7958;53.024;12.970;2023-12-20T01:38:12;3.07;;;0.90;;
3571;SDS011;7958;53.024;12.970;2023-12-20T01:40:39;1.20;;;1.10;;
3571;SDS011;7958;53.024;12.970;2023-12-20T01:43:07;4.90;;;1.20;;
3571;SDS011;7958;53.024;12.970;2023-12-20T01:45:34;2.53;;;1.33;;
3571;SDS011;7958;53.024;12.970;2023-12-20T01:48:01;0.90;;;0.90;;
3571;SDS011;7958;53.024;12.970;2023-12-20T01:50:28;4.20;;;1.03;;
3571;SDS011;7958;53.024;12.970;2023-12-20T01:52:57;3.03;;;1.17;;
3571;SDS011;7958;53.024;12.970;2023-12-20T01:55:26;4.47;;;1.07;;
3571;SDS011;7958;53.024;12.970;2023-12-20T01:57:54;1.13;;;0.70;;
3571;SDS011;7958;53.024;12.970;2023-12-20T02:00:20;3.33;;;1.13;;
3571;SDS011;7958;53.024;12.970;2023-12-20T02:02:48;0.90;;;0.80;;
3571;SDS011;7958;53.024;12.970;2023-12-20T02:05:15;1.00;;;0.80;;
3571;SDS011;7958;53.024;12.970;2023-12-20T02:07:42;1.10;;;1.00;;
3571;SDS011;7958;53.024;12.970;2023-12-20T02:10:10;1.20;;;1.10;;
3571;SDS011;7958;53.024;12.970;2023-12-20T02:12:37;4.30;;;1.20;;
3571;SDS011;7958;53.024;12.970;2023-12-20T02:15:04;2.40;;;1.13;;
3571;SDS011;7958;53.024;12.970;2023-12-20T02:17:31;3.30;;;1.00;;
3571;SDS011;7958;53.024;12.970;2023-12-20T02:19:58;0.90;;;0.80;;
3571;SDS011;7958;53.024;12.970;2023-12-20T02:22:26;1.00;;;1.00;;
3571;SDS011;7958;53.024;12.970;2023-12-20T02:24:52;3.17;;;1.07;;
3571;SDS011;7958;53.024;12.970;2023-12-20T02:27:19;2.33;;;0.93;;
3571;SDS011;7958;53.024;12.970;2023-12-20T02:29:46;2.00;;;1.10;;
3571;SDS011;7958;53.024;12.970;2023-12-20T02:32:13;3.03;;;1.03;;
3571;SDS011;7958;53.024;12.970;2023-12-20T02:34:40;2.30;;;1.10;;
3571;SDS011;7958;53.024;12.970;2023-12-20T02:37:06;0.90;;;0.90;;
3571;SDS011;7958;53.024;12.970;2023-12-20T02:39:34;3.43;;;1.13;;
3571;SDS011;7958;53.024;12.970;2023-12-20T02:42:00;3.00;;;1.30;;
3571;SDS011;7958;53.024;12.970;2023-12-20T02:44:26;3.50;;;1.57;;
3571;SDS011;7958;53.024;12.970;2023-12-20T02:46:53;4.57;;;1.40;;
3571;SDS011;7958;53.024;12.970;2023-12-20T02:49:19;16.03;;;2.13;;
3571;SDS011;7958;53.024;12.970;2023-12-20T02:51:46;6.30;;;1.67;;
3571;SDS011;7958;53.024;12.970;2023-12-20T02:54:12;1.73;;;1.40;;
3571;SDS011;7958;53.024;12.970;2023-12-20T02:56:40;4.97;;;1.63;;
3571;SDS011;7958;53.024;12.970;2023-12-20T02:59:06;4.73;;;1.57;;
3571;SDS011;7958;53.024;12.970;2023-12-20T03:01:33;8.77;;;1.47;;
3571;SDS011;7958;53.024;12.970;2023-12-20T03:04:00;1.20;;;1.07;;
3571;SDS011;7958;53.024;12.970;2023-12-20T03:06:26;4.90;;;1.60;;
3571;SDS011;7958;53.024;12.970;2023-12-20T03:08:53;4.80;;;2.20;;
3571;SDS011;7958;53.024;12.970;2023-12-20T03:11:19;5.90;;;1.60;;
3571;SDS011;7958;53.024;12.970;2023-12-20T03:13:47;3.53;;;1.23;;
3571;SDS011;7958;53.024;12.970;2023-12-20T03:16:13;9.93;;;1.63;;
3571;SDS011;7958;53.024;12.970;2023-12-20T03:18:41;7.87;;;1.57;;
3571;SDS011;7958;53.024;12.970;2023-12-20T03:21:08;2.03;;;1.50;;
3571;SDS011;7958;53.024;12.970;2023-12-20T03:23:34;6.73;;;2.33;;
3571;SDS011;7958;53.024;12.970;2023-12-20T03:26:00;8.77;;;2.30;;
3571;SDS011;7958;53.024;12.970;2023-12-20T03:28:27;11.00;;;2.23;;
3571;SDS011;7958;53.024;12.970;2023-12-20T03:30:55;6.40;;;3.00;;
3571;SDS011;7958;53.024;12.970;2023-12-20T03:33:21;7.37;;;2.70;;
3571;SDS011;7958;53.024;12.970;2023-12-20T03:35:48;5.50;;;3.37;;
3571;SDS011;7958;53.024;12.970;2023-12-20T03:38:14;13.10;;;4.97;;
3571;SDS011;7958;53.024;12.970;2023-12-20T03:40:40;11.60;;;5.37;;
3571;SDS011;7958;53.024;12.970;2023-12-20T03:43:07;5.37;;;1.90;;
3571;SDS011;7958;53.024;12.970;2023-12-20T03:45:33;9.30;;;1.97;;
3571;SDS011;7958;53.024;12.970;2023-12-20T03:48:01;12.13;;;3.50;;
3571;SDS011;7958;53.024;12.970;2023-12-20T03:50:27;9.40;;;3.40;;
3571;SDS011;7958;53.024;12.970;2023-12-20T03:52:53;10.83;;;4.00;;
3571;SDS011;7958;53.024;12.970;2023-12-20T03:55:20;11.63;;;2.70;;
3571;SDS011;7958;53.024;12.970;2023-12-20T03:57:46;5.53;;;2.97;;
3571;SDS011;7958;53.024;12.970;2023-12-20T04:00:12;14.60;;;3.10;;
3571;SDS011;7958;53.024;12.970;2023-12-20T04:02:40;4.60;;;2.23;;
3571;SDS011;7958;53.024;12.970;2023-12-20T04:05:09;7.00;;;2.20;;
3571;SDS011;7958;53.024;12.970;2023-12-20T04:07:35;2.93;;;1.87;;
3571;SDS011;7958;53.024;12.970;2023-12-20T04:10:04;9.77;;;2.90;;
3571;SDS011;7958;53.024;12.970;2023-12-20T04:12:32;11.10;;;2.93;;
3571;SDS011;7958;53.024;12.970;2023-12-20T04:15:00;4.77;;;2.40;;
3571;SDS011;7958;53.024;12.970;2023-12-20T04:17:28;11.97;;;2.50;;
3571;SDS011;7958;53.024;12.970;2023-12-20T04:19:55;8.10;;;3.00;;
3571;SDS011;7958;53.024;12.970;2023-12-20T04:22:23;6.20;;;3.13;;
3571;SDS011;7958;53.024;12.970;2023-12-20T04:24:49;9.40;;;2.10;;
3571;SDS011;7958;53.024;12.970;2023-12-20T04:27:15;11.63;;;2.27;;
3571;SDS011;7958;53.024;12.970;2023-12-20T04:29:42;9.70;;;3.47;;
3571;SDS011;7958;53.024;12.970;2023-12-20T04:32:08;8.23;;;2.90;;
3571;SDS011;7958;53.024;12.970;2023-12-20T04:34:34;5.10;;;3.20;;
3571;SDS011;7958;53.024;12.970;2023-12-20T04:37:00;12.00;;;3.70;;
3571;SDS011;7958;53.024;12.970;2023-12-20T04:39:29;10.13;;;2.97;;
3571;SDS011;7958;53.024;12.970;2023-12-20T04:41:55;6.97;;;2.17;;
3571;SDS011;7958;53.024;12.970;2023-12-20T04:44:21;9.20;;;2.50;;
3571;SDS011;7958;53.024;12.970;2023-12-20T04:46:48;6.90;;;1.90;;
3571;SDS011;7958;53.024;12.970;2023-12-20T04:49:15;19.07;;;1.90;;
3571;SDS011;7958;53.024;12.970;2023-12-20T04:51:41;3.93;;;2.00;;
3571;SDS011;7958;53.024;12.970;2023-12-20T04:54:07;10.37;;;2.33;;
3571;SDS011;7958;53.024;12.970;2023-12-20T04:56:36;5.83;;;2.37;;
3571;SDS011;7958;53.024;12.970;2023-12-20T04:59:02;11.37;;;2.60;;
3571;SDS011;7958;53.024;12.970;2023-12-20T05:01:29;5.50;;;1.70;;
3571;SDS011;7958;53.024;12.970;2023-12-20T05:03:55;12.60;;;2.20;;
3571;SDS011;7958;53.024;12.970;2023-12-20T05:06:21;5.23;;;2.00;;
3571;SDS011;7958;53.024;12.970;2023-12-20T05:08:48;13.30;;;2.40;;
3571;SDS011;7958;53.024;12.970;2023-12-20T05:11:14;4.90;;;1.70;;
3571;SDS011;7958;53.024;12.970;2023-12-20T05:13:42;7.90;;;2.50;;
3571;SDS011;7958;53.024;12.970;2023-12-20T05:16:08;5.33;;;1.83;;
3571;SDS011;7958;53.024;12.970;2023-12-20T05:18:35;15.73;;;2.30;;
3571;SDS011;7958;53.024;12.970;2023-12-20T05:21:01;8.97;;;1.83;;
3571;SDS011;7958;53.024;12.970;2023-12-20T05:23:28;4.90;;;1.60;;
3571;SDS011;7958;53.024;12.970;2023-12-20T05:25:54;5.83;;;2.10;;
3571;SDS011;7958;53.024;12.970;2023-12-20T05:28:20;10.13;;;1.90;;
3571;SDS011;7958;53.024;12.970;2023-12-20T05:30:48;6.67;;;1.70;;
3571;SDS011;7958;53.024;12.970;2023-12-20T05:33:14;3.40;;;1.33;;
3571;SDS011;7958;53.024;12.970;2023-12-20T05:35:41;4.87;;;2.00;;
3571;SDS011;7958;53.024;12.970;2023-12-20T05:38:07;11.80;;;3.30;;
3571;SDS011;7958;53.024;12.970;2023-12-20T05:40:34;10.43;;;5.53;;
3571;SDS011;7958;53.024;12.970;2023-12-20T05:43:00;4.63;;;1.80;;
3571;SDS011;7958;53.024;12.970;2023-12-20T05:45:27;5.20;;;1.80;;
3571;SDS011;7958;53.024;12.970;2023-12-20T05:47:55;7.93;;;1.60;;
3571;SDS011;7958;53.024;12.970;2023-12-20T05:50:22;6.33;;;1.50;;
3571;SDS011;7958;53.024;12.970;2023-12-20T05:52:48;12.80;;;3.07;;
3571;SDS011;7958;53.024;12.970;2023-12-20T05:55:15;4.17;;;1.70;;
3571;SDS011;7958;53.024;12.970;2023-12-20T05:57:42;3.57;;;1.43;;
3571;SDS011;7958;53.024;12.970;2023-12-20T06:00:08;5.60;;;1.90;;
3571;SDS011;7958;53.024;12.970;2023-12-20T06:02:36;10.87;;;1.93;;
3571;SDS011;7958;53.024;12.970;2023-12-20T06:05:04;9.60;;;2.20;;
3571;SDS011;7958;53.024;12.970;2023-12-20T06:07:31;9.80;;;2.10;;
3571;SDS011;7958;53.024;12.970;2023-12-20T06:09:57;6.17;;;1.50;;
3571;SDS011;7958;53.024;12.970;2023-12-20T06:12:24;8.10;;;2.00;;
3571;SDS011;7958;53.024;12.970;2023-12-20T06:14:51;8.03;;;1.80;;
3571;SDS011;7958;53.024;12.970;2023-12-20T06:17:18;3.40;;;1.70;;
3571;SDS011;7958;53.024;12.970;2023-12-20T06:19:44;11.33;;;2.03;;
3571;SDS011;7958;53.024;12.970;2023-12-20T06:22:14;6.70;;;1.63;;
3571;SDS011;7958;53.024;12.970;2023-12-20T06:24:40;10.43;;;2.03;;
3571;SDS011;7958;53.024;12.970;2023-12-20T06:27:07;7.23;;;2.33;;
3571;SDS011;7958;53.024;12.970;2023-12-20T06:29:33;11.60;;;1.90;;
3571;SDS011;7958;53.024;12.970;2023-12-20T06:32:00;10.97;;;2.17;;
3571;SDS011;7958;53.024;12.970;2023-12-20T06:34:26;8.23;;;2.33;;
3571;SDS011;7958;53.024;12.970;2023-12-20T06:36:53;12.10;;;2.00;;
3571;SDS011;7958;53.024;12.970;2023-12-20T06:39:20;2.23;;;1.67;;
3571;SDS011;7958;53.024;12.970;2023-12-20T06:41:47;6.90;;;1.90;;
3571;SDS011;7958;53.024;12.970;2023-12-20T06:44:14;5.43;;;1.90;;
3571;SDS011;7958;53.024;12.970;2023-12-20T06:46:41;8.20;;;2.63;;
3571;SDS011;7958;53.024;12.970;2023-12-20T06:49:07;4.20;;;2.03;;
3571;SDS011;7958;53.024;12.970;2023-12-20T06:51:33;7.57;;;2.60;;
3571;SDS011;7958;53.024;12.970;2023-12-20T06:54:00;5.47;;;2.10;;
3571;SDS011;7958;53.024;12.970;2023-12-20T06:56:28;9.37;;;2.37;;
3571;SDS011;7958;53.024;12.970;2023-12-20T06:58:55;8.80;;;3.07;;
3571;SDS011;7958;53.024;12.970;2023-12-20T07:01:21;10.83;;;3.87;;
3571;SDS011;7958;53.024;12.970;2023-12-20T07:03:48;6.60;;;2.27;;
3571;SDS011;7958;53.024;12.970;2023-12-20T07:06:15;15.67;;;2.97;;
3571;SDS011;7958;53.024;12.970;2023-12-20T07:08:42;7.43;;;2.77;;
3571;SDS011;7958;53.024;12.970;2023-12-20T07:11:08;8.03;;;2.40;;
3571;SDS011;7958;53.024;12.970;2023-12-20T07:13:36;23.90;;;5.80;;
3571;SDS011;7958;53.024;12.970;2023-12-20T07:16:02;8.00;;;2.30;;
3571;SDS011;7958;53.024;12.970;2023-12-20T07:18:29;5.43;;;2.90;;
3571;SDS011;7958;53.024;12.970;2023-12-20T07:20:55;4.40;;;2.90;;
3571;SDS011;7958;53.024;12.970;2023-12-20T07:23:21;15.80;;;2.47;;
3571;SDS011;7958;53.024;12.970;2023-12-20T07:25:47;6.40;;;3.03;;
3571;SDS011;7958;53.024;12.970;2023-12-20T07:28:14;4.90;;;2.00;;
3571;SDS011;7958;53.024;12.970;2023-12-20T07:30:41;9.00;;;2.40;;
3571;SDS011;7958;53.024;12.970;2023-12-20T07:33:07;4.70;;;1.90;;
3571;SDS011;7958;53.024;12.970;2023-12-20T07:35:34;4.87;;;2.47;;
3571;SDS011;7958;53.024;12.970;2023-12-20T07:38:01;5.13;;;2.40;;
3571;SDS011;7958;53.024;12.970;2023-12-20T07:40:27;8.13;;;2.60;;
3571;SDS011;7958;53.024;12.970;2023-12-20T07:42:54;7.93;;;2.60;;
3571;SDS011;7958;53.024;12.970;2023-12-20T07:45:20;11.93;;;2.77;;
3571;SDS011;7958;53.024;12.970;2023-12-20T07:47:48;8.33;;;2.37;;
3571;SDS011;7958;53.024;12.970;2023-12-20T07:50:15;7.57;;;2.60;;
3571;SDS011;7958;53.024;12.970;2023-12-20T07:52:41;12.90;;;2.93;;
3571;SDS011;7958;53.024;12.970;2023-12-20T07:55:08;17.67;;;2.53;;
3571;SDS011;7958;53.024;12.970;2023-12-20T07:57:34;7.80;;;2.47;;
3571;SDS011;7958;53.024;12.970;2023-12-20T08:00:01;6.33;;;2.30;;
3571;SDS011;7958;53.024;12.970;2023-12-20T08:02:29;8.60;;;2.20;;
3571;SDS011;7958;53.024;12.970;2023-12-20T08:04:57;10.57;;;2.17;;
3571;SDS011;7958;53.024;12.970;2023-12-20T08:07:23;8.63;;;2.60;;
3571;SDS011;7958;53.024;12.970;2023-12-20T08:09:50;5.97;;;2.60;;
3571;SDS011;7958;53.024;12.970;2023-12-20T08:12:19;7.10;;;2.50;;
3571;SDS011;7958;53.024;12.970;2023-12-20T08:14:46;9.93;;;2.87;;
3571;SDS011;7958;53.024;12.970;2023-12-20T08:17:13;11.57;;;3.10;;
3571;SDS011;7958;53.024;12.970;2023-12-20T08:19:41;11.10;;;3.43;;
3571;SDS011;7958;53.024;12.970;2023-12-20T08:22:09;6.63;;;2.60;;
3571;SDS011;7958;53.024;12.970;2023-12-20T08:24:35;5.70;;;3.10;;
3571;SDS011;7958;53.024;12.970;2023-12-20T08:27:01;13.37;;;3.17;;
3571;SDS011;7958;53.024;12.970;2023-12-20T08:29:28;6.27;;;3.00;;
3571;SDS011;7958;53.024;12.970;2023-12-20T08:31:55;10.47;;;3.63;;
3571;SDS011;7958;53.024;12.970;2023-12-20T08:34:23;10.50;;;3.83;;
3571;SDS011;7958;53.024;12.970;2023-12-20T08:36:50;9.50;;;2.70;;
3571;SDS011;7958;53.024;12.970;2023-12-20T08:39:18;8.87;;;2.90;;
3571;SDS011;7958;53.024;12.970;2023-12-20T08:41:44;6.30;;;2.70;;
3571;SDS011;7958;53.024;12.970;2023-12-20T08:44:11;5.90;;;2.87;;
3571;SDS011;7958;53.024;12.970;2023-12-20T08:46:37;12.37;;;3.67;;
3571;SDS011;7958;53.024;12.970;2023-12-20T08:49:03;9.70;;;3.30;;
3571;SDS011;7958;53.024;12.970;2023-12-20T08:51:30;8.43;;;3.27;;
3571;SDS011;7958;53.024;12.970;2023-12-20T08:53:56;5.47;;;2.93;;
3571;SDS011;7958;53.024;12.970;2023-12-20T08:56:24;17.77;;;3.10;;
3571;SDS011;7958;53.024;12.970;2023-12-20T08:58:50;11.87;;;2.70;;
3571;SDS011;7958;53.024;12.970;2023-12-20T09:01:17;17.10;;;3.93;;
3571;SDS011;7958;53.024;12.970;2023-12-20T09:03:43;5.27;;;2.60;;
3571;SDS011;7958;53.024;12.970;2023-12-20T09:06:09;7.50;;;3.37;;
3571;SDS011;7958;53.024;12.970;2023-12-20T09:08:36;10.10;;;4.27;;
3571;SDS011;7958;53.024;12.970;2023-12-20T09:11:02;10.37;;;3.70;;
3571;SDS011;7958;53.024;12.970;2023-12-20T09:13:30;8.63;;;3.63;;
3571;SDS011;7958;53.024;12.970;2023-12-20T09:15:57;3.07;;;2.60;;
3571;SDS011;7958;53.024;12.970;2023-12-20T09:18:23;12.13;;;3.50;;
3571;SDS011;7958;53.024;12.970;2023-12-20T09:20:50;11.03;;;3.93;;
3571;SDS011;7958;53.024;12.970;2023-12-20T09:23:16;15.17;;;4.20;;
3571;SDS011;7958;53.024;12.970;2023-12-20T09:25:43;13.27;;;3.57;;
3571;SDS011;7958;53.024;12.970;2023-12-20T09:28:09;9.87;;;2.97;;
3571;SDS011;7958;53.024;12.970;2023-12-20T09:30:37;11.23;;;2.87;;
3571;SDS011;7958;53.024;12.970;2023-12-20T09:33:05;7.63;;;2.70;;
3571;SDS011;7958;53.024;12.970;2023-12-20T09:35:32;7.20;;;3.30;;
3571;SDS011;7958;53.024;12.970;2023-12-20T09:37:58;13.37;;;3.20;;
3571;SDS011;7958;53.024;12.970;2023-12-20T09:40:25;14.13;;;3.87;;
3571;SDS011;7958;53.024;12.970;2023-12-20T09:42:55;7.67;;;2.60;;
3571;SDS011;7958;53.024;12.970;2023-12-20T09:45:23;5.30;;;2.23;;
3571;SDS011;7958;53.024;12.970;2023-12-20T09:47:51;13.03;;;4.30;;
3571;SDS011;7958;53.024;12.970;2023-12-20T09:50:19;11.07;;;3.43;;
3571;SDS011;7958;53.024;12.970;2023-12-20T09:52:47;6.03;;;2.60;;
3571;SDS011;7958;53.024;12.970;2023-12-20T09:55:16;8.40;;;2.60;;
3571;SDS011;7958;53.024;12.970;2023-12-20T09:57:43;7.60;;;2.37;;
3571;SDS011;7958;53.024;12.970;2023-12-20T10:00:10;8.10;;;2.80;;
3571;SDS011;7958;53.024;12.970;2023-12-20T10:02:39;8.63;;;2.57;;
3571;SDS011;7958;53.024;12.970;2023-12-20T10:05:10;6.63;;;2.70;;
3571;SDS011;7958;53.024;12.970;2023-12-20T10:07:44;8.50;;;3.13;;
3571;SDS011;7958;53.024;12.970;2023-12-20T10:10:10;10.80;;;2.93;;
3571;SDS011;7958;53.024;12.970;2023-12-20T10:12:38;10.70;;;2.77;;
3571;SDS011;7958;53.024;12.970;2023-12-20T10:15:04;12.77;;;2.50;;
3571;SDS011;7958;53.024;12.970;2023-12-20T10:17:31;8.77;;;3.00;;
3571;SDS011;7958;53.024;12.970;2023-12-20T10:19:58;10.80;;;2.47;;
3571;SDS011;7958;53.024;12.970;2023-12-20T10:22:26;5.70;;;1.93;;
3571;SDS011;7958;53.024;12.970;2023-12-20T10:24:56;8.40;;;3.03;;
3571;SDS011;7958;53.024;12.970;2023-12-20T10:27:22;6.53;;;2.00;;
3571;SDS011;7958;53.024;12.970;2023-12-20T10:29:48;7.37;;;2.77;;
3571;SDS011;7958;53.024;12.970;2023-12-20T10:32:23;8.13;;;2.77;;
3571;SDS011;7958;53.024;12.970;2023-12-20T10:34:50;13.20;;;3.07;;
3571;SDS011;7958;53.024;12.970;2023-12-20T10:37:16;14.67;;;3.87;;
3571;SDS011;7958;53.024;12.970;2023-12-20T10:39:44;20.60;;;4.37;;
3571;SDS011;7958;53.024;12.970;2023-12-20T10:42:15;8.10;;;3.10;;
3571;SDS011;7958;53.024;12.970;2023-12-20T10:44:43;9.63;;;2.73;;
3571;SDS011;7958;53.024;12.970;2023-12-20T10:47:09;13.93;;;3.30;;
3571;SDS011;7958;53.024;12.970;2023-12-20T10:49:37;13.80;;;2.50;;
3571;SDS011;7958;53.024;12.970;2023-12-20T10:52:05;17.10;;;3.13;;
3571;SDS011;7958;53.024;12.970;2023-12-20T10:54:31;10.80;;;2.50;;
3571;SDS011;7958;53.024;12.970;2023-12-20T10:57:00;4.77;;;2.33;;
3571;SDS011;7958;53.024;12.970;2023-12-20T10:59:26;10.87;;;2.70;;
3571;SDS011;7958;53.024;12.970;2023-12-20T11:01:54;12.43;;;2.60;;
3571;SDS011;7958;53.024;12.970;2023-12-20T11:04:22;7.17;;;2.17;;
3571;SDS011;7958;53.024;12.970;2023-12-20T11:06:51;8.10;;;2.23;;
3571;SDS011;7958;53.024;12.970;2023-12-20T11:09:22;4.27;;;2.00;;
3571;SDS011;7958;53.024;12.970;2023-12-20T11:11:56;10.37;;;2.63;;
3571;SDS011;7958;53.024;12.970;2023-12-20T11:14:29;6.50;;;2.53;;
3571;SDS011;7958;53.024;12.970;2023-12-20T11:17:06;6.77;;;2.80;;
3571;SDS011;7958;53.024;12.970;2023-12-20T11:19:35;5.90;;;2.37;;
3571;SDS011;7958;53.024;12.970;2023-12-20T11:22:03;8.23;;;2.50;;
3571;SDS011;7958;53.024;12.970;2023-12-20T11:24:30;4.87;;;2.83;;
3571;SDS011;7958;53.024;12.970;2023-12-20T11:26:57;12.80;;;2.77;;
3571;SDS011;7958;53.024;12.970;2023-12-20T11:29:33;13.93;;;3.10;;
3571;SDS011;7958;53.024;12.970;2023-12-20T11:32:01;4.90;;;2.50;;
3571;SDS011;7958;53.024;12.970;2023-12-20T11:34:28;11.60;;;2.93;;
3571;SDS011;7958;53.024;12.970;2023-12-20T11:36:58;14.40;;;2.93;;
3571;SDS011;7958;53.024;12.970;2023-12-20T11:39:25;6.63;;;3.00;;
3571;SDS011;7958;53.024;12.970;2023-12-20T11:41:53;9.63;;;2.87;;
3571;SDS011;7958;53.024;12.970;2023-12-20T11:44:22;10.53;;;3.37;;
3571;SDS011;7958;53.024;12.970;2023-12-20T11:46:49;9.20;;;3.33;;
3571;SDS011;7958;53.024;12.970;2023-12-20T11:49:15;7.00;;;2.73;;
3571;SDS011;7958;53.024;12.970;2023-12-20T11:51:42;7.57;;;2.97;;
3571;SDS011;7958;53.024;12.970;2023-12-20T11:54:08;12.40;;;3.23;;
3571;SDS011;7958;53.024;12.970;2023-12-20T11:56:36;8.43;;;2.90;;
3571;SDS011;7958;53.024;12.970;2023-12-20T11:59:02;5.17;;;2.50;;
3571;SDS011;7958;53.024;12.970;2023-12-20T12:01:32;18.73;;;4.90;;
3571;SDS011;7958;53.024;12.970;2023-12-20T12:04:02;7.53;;;3.00;;
3571;SDS011;7958;53.024;12.970;2023-12-20T12:06:29;7.87;;;3.00;;
3571;SDS011;7958;53.024;12.970;2023-12-20T12:08:55;7.20;;;2.87;;
3571;SDS011;7958;53.024;12.970;2023-12-20T12:11:21;10.23;;;3.13;;
3571;SDS011;7958;53.024;12.970;2023-12-20T12:13:48;10.17;;;2.80;;
3571;SDS011;7958;53.024;12.970;2023-12-20T12:16:16;7.07;;;2.53;;
3571;SDS011;7958;53.024;12.970;2023-12-20T12:18:45;6.63;;;2.07;;
3571;SDS011;7958;53.024;12.970;2023-12-20T12:21:18;4.10;;;2.57;;
3571;SDS011;7958;53.024;12.970;2023-12-20T12:23:44;6.90;;;2.20;;
3571;SDS011;7958;53.024;12.970;2023-12-20T12:26:11;9.63;;;2.60;;
3571;SDS011;7958;53.024;12.970;2023-12-20T12:28:39;4.20;;;2.10;;
3571;SDS011;7958;53.024;12.970;2023-12-20T12:31:06;6.67;;;2.10;;
3571;SDS011;7958;53.024;12.970;2023-12-20T12:33:33;2.43;;;2.13;;
3571;SDS011;7958;53.024;12.970;2023-12-20T12:36:01;6.43;;;1.70;;
3571;SDS011;7958;53.024;12.970;2023-12-20T12:38:32;6.40;;;1.67;;
3571;SDS011;7958;53.024;12.970;2023-12-20T12:40:59;4.90;;;2.07;;
3571;SDS011;7958;53.024;12.970;2023-12-20T12:43:26;3.40;;;1.60;;
3571;SDS011;7958;53.024;12.970;2023-12-20T12:45:52;2.90;;;1.20;;
3571;SDS011;7958;53.024;12.970;2023-12-20T12:48:20;3.47;;;1.60;;
3571;SDS011;7958;53.024;12.970;2023-12-20T12:50:47;8.30;;;1.60;;
3571;SDS011;7958;53.024;12.970;2023-12-20T12:53:18;7.33;;;1.53;;
3571;SDS011;7958;53.024;12.970;2023-12-20T12:55:44;1.00;;;1.00;;
3571;SDS011;7958;53.024;12.970;2023-12-20T12:58:11;4.40;;;1.30;;
3571;SDS011;7958;53.024;12.970;2023-12-20T13:00:37;2.00;;;1.10;;
3571;SDS011;7958;53.024;12.970;2023-12-20T13:03:03;6.07;;;1.37;;
3571;SDS011;7958;53.024;12.970;2023-12-20T13:05:30;1.50;;;0.97;;
3571;SDS011;7958;53.024;12.970;2023-12-20T13:07:56;3.10;;;1.30;;
3571;SDS011;7958;53.024;12.970;2023-12-20T13:10:25;1.10;;;1.00;;
3571;SDS011;7958;53.024;12.970;2023-12-20T13:12:51;0.60;;;0.60;;
3571;SDS011;7958;53.024;12.970;2023-12-20T13:15:17;0.73;;;0.73;;
3571;SDS011;7958;53.024;12.970;2023-12-20T13:17:44;1.83;;;0.80;;
3571;SDS011;7958;53.024;12.970;2023-12-20T13:20:11;0.60;;;0.60;;
3571;SDS011;7958;53.024;12.970;2023-12-20T13:22:37;1.60;;;0.70;;
3571;SDS011;7958;53.024;12.970;2023-12-20T13:25:04;1.10;;;0.70;;
3571;SDS011;7958;53.024;12.970;2023-12-20T13:27:32;1.07;;;0.50;;
3571;SDS011;7958;53.024;12.970;2023-12-20T13:29:59;0.60;;;0.50;;
3571;SDS011;7958;53.024;12.970;2023-12-20T13:32:26;1.40;;;0.60;;
3571;SDS011;7958;53.024;12.970;2023-12-20T13:34:52;0.60;;;0.60;;
3571;SDS011;7958;53.024;12.970;2023-12-20T13:37:19;1.23;;;0.53;;
3571;SDS011;7958;53.024;12.970;2023-12-20T13:39:45;0.60;;;0.50;;
3571;SDS011;7958;53.024;12.970;2023-12-20T13:42:12;1.10;;;1.00;;
3571;SDS011;7958;53.024;12.970;2023-12-20T13:44:40;1.20;;;0.80;;
3571;SDS011;7958;53.024;12.970;2023-12-20T13:47:06;1.43;;;0.90;;
3571;SDS011;7958;53.024;12.970;2023-12-20T13:49:32;2.73;;;1.30;;
3571;SDS011;7958;53.024;12.970;2023-12-20T13:52:00;2.50;;;2.30;;
3571;SDS011;7958;53.024;12.970;2023-12-20T13:54:28;1.80;;;0.90;;
3571;SDS011;7958;53.024;12.970;2023-12-20T13:56:54;1.17;;;0.90;;
3571;SDS011;7958;53.024;12.970;2023-12-20T13:59:22;1.63;;;0.67;;
3571;SDS011;7958;53.024;12.970;2023-12-20T14:01:50;0.90;;;0.70;;
3571;SDS011;7958;53.024;12.970;2023-12-20T14:04:16;1.90;;;1.00;;
3571;SDS011;7958;53.024;12.970;2023-12-20T14:06:43;2.70;;;0.80;;
3571;SDS011;7958;53.024;12.970;2023-12-20T14:09:08;1.83;;;0.80;;
3571;SDS011;7958;53.024;12.970;2023-12-20T14:11:37;3.90;;;1.13;;
3571;SDS011;7958;53.024;12.970;2023-12-20T14:14:06;1.20;;;0.80;;
3571;SDS011;7958;53.024;12.970;2023-12-20T14:16:34;2.67;;;0.77;;
3571;SDS011;7958;53.024;12.970;2023-12-20T14:19:02;0.73;;;0.70;;
3571;SDS011;7958;53.024;12.970;2023-12-20T14:21:30;2.73;;;0.87;;
3571;SDS011;7958;53.024;12.970;2023-12-20T14:23:56;0.80;;;0.80;;
3571;SDS011;7958;53.024;12.970;2023-12-20T14:26:23;2.20;;;1.00;;
3571;SDS011;7958;53.024;12.970;2023-12-20T14:28:50;4.97;;;1.17;;
3571;SDS011;7958;53.024;12.970;2023-12-20T14:31:16;3.23;;;0.90;;
3571;SDS011;7958;53.024;12.970;2023-12-20T14:33:43;6.00;;;1.23;;
3571;SDS011;7958;53.024;12.970;2023-12-20T14:36:10;1.67;;;0.80;;
3571;SDS011;7958;53.024;12.970;2023-12-20T14:38:37;3.33;;;1.30;;
3571;SDS011;7958;53.024;12.970;2023-12-20T14:41:04;3.03;;;0.90;;
3571;SDS011;7958;53.024;12.970;2023-12-20T14:43:33;3.60;;;1.10;;
3571;SDS011;7958;53.024;12.970;2023-12-20T14:46:00;1.37;;;1.00;;
3571;SDS011;7958;53.024;12.970;2023-12-20T14:48:26;4.63;;;1.00;;
3571;SDS011;7958;53.024;12.970;2023-12-20T14:50:53;4.07;;;1.17;;
3571;SDS011;7958;53.024;12.970;2023-12-20T14:53:21;3.00;;;1.30;;
3571;SDS011;7958;53.024;12.970;2023-12-20T14:55:47;7.47;;;1.30;;